METAR AND TAF INFORMATION
METAR FOR LIPZ
ADDS - METARS form results

(0114 UTC 20 September 2019)
Data provider http://aviationweather.gov/metar/data/
 
METAR text: LIPZ 200050Z 03010KT CAVOK 15/06 Q1025 NOSIG
Conditions at: LIPZ (VENEZIA/TESSERA , IT) observed 0050 UTC 20 September 2019
Temperature: 15.0°C (59°F)
Dewpoint: 6.0°C (43°F) [RH = 55%]
Pressure (altimeter): 30.27 inches Hg (1025.0 mb)
Winds: from the NNE (30 degrees) at 12 MPH (10 knots; 5.1 m/s)
Visibility: 6 or more miles (10+ km)
Ceiling: ceiling and visibility are OK
Clouds: unknown
Weather: no significant weather observed at this time

METAR text: LIPZ 200020Z 05009KT CAVOK 15/07 Q1025 NOSIG
Conditions at: LIPZ (VENEZIA/TESSERA , IT) observed 0020 UTC 20 September 2019
Temperature: 15.0°C (59°F)
Dewpoint: 7.0°C (45°F) [RH = 59%]
Pressure (altimeter): 30.27 inches Hg (1025.0 mb)
Winds: from the NE (50 degrees) at 10 MPH (9 knots; 4.6 m/s)
Visibility: 6 or more miles (10+ km)
Ceiling: ceiling and visibility are OK
Clouds: unknown
Weather: no significant weather observed at this time

Forecast for: LIPZ (VENEZIA/TESSERA , IT)
Text: TAF LIPZ 192300Z 2000/2106 04012KT 9999 SCT050
Forecast period: 0000 UTC 20 September 2019 to 0600 UTC 21 September 2019
Forecast type: FROM: standard forecast or significant change
Winds: from the NE (40 degrees) at 14 MPH (12 knots; 6.2 m/s)
Visibility: 6 or more miles 10+ km)
Ceiling: at least 12,000 feet AGL
Clouds: scattered clouds at 5000 feet AGL
Weather: no significant weather forecast for this period

 AIRPORT MAP

 RUNWAY INFORMATION
Runway 04L Runway length 9121 ft Runway width 148 ft
Runway elevation 7 ft Runway displaced threshold 308 ft Runway heading 42
Runway 22R Runway length 9121 ft Runway width 148 ft
Runway elevation 7 ft Runway displaced threshold 0 ft Runway heading 222
Runway 04R Runway length 10827 ft Runway width 148 ft
Runway elevation 7 ft Runway displaced threshold 0 ft Runway heading 42
Runway 22L Runway length 10827 ft Runway width 148 ft
Runway elevation 7 ft Runway displaced threshold 0 ft Runway heading 222

 AIRPORT FREQUENCIES
Type APP Name APP Frequency 118.9 MHZ
Type ATIS Name ATIS Frequency 122.225 MHZ
Type GND Name GND Frequency 121.7 MHZ
Type TWR Name TWR Frequency 120.2 MHZ

 AIRPORT NEAR NAVIGATION AIDS
Type VOR-DME Name Tessera Frequency 115300 KHZ
Type NDB Name Venezia Frequency 379 KHZ